Portada
METAR-TAF:

METAR-TAF

Aeroports :

Blanc-Sablon, Quebec, Canadà

latitud: 51-27N, longitud: 057-11W, altitud: 30 m

Observació

L'informe es va fer fa 36 minuts, a les 20:00 UTC
Vent 6 kt del Sud-Oest
Temperatura 10°C
Humitat 100%
Pressió 1008 hPa
Visibilitat: 0.4 km
pluja, boira

METAR: CYBX 152000Z 22006KT 1/4SM -RA FG VV002 10/10 A2977 RMK FG8 SLP086

Hora: 16:36 (20:36 UTC)

Pronòstic

L'informe es va fer fa 58 minuts, a les 19:38 UTC
Pronòstic vàlid del 15 a les 20 UTC al 16 a les 08 UTC
Vent 8 kt del Sud-Oest
Visibilitat: 0.8 km
a una alçada de 200 ft
plugim, boira
Temporalment
l' 15 a les 20 UTC al 16 a les 08 UTC
Visibilitat: 3.2 km
Cel cobert a una alçada de 400 ft
xàfecs de pluja, boirina
Evolucionant progressivament
l' 16 a les 06 UTC al 16 a les 08 UTC
Vent 5 kt del Oest/Sud-Oest

TAF: CYBX 151938Z 1520/1608 22008KT 1/2SM -DZ FG VV002 TEMPO 1520/1608 2SM -SHRA BR OVC004 BECMG 1606/1608 24005KT RMK NXT FCST BY 160200Z

Observacions i pronòstics meteorològics de més de 4000 aeroports (METAR i TAF).

Les estacions disponibles són els punts grocs i vermells al mapa.

Posi el ratolí al punt desitjat per veure el nom de l'estació.

Feu clic per veure les observacions i els pronòstics meteorològics.

Per canviar el mapa: feu clic els botons verds amb una creu de color negre per apropar; al botó verd amb un guió per allunyar la imatge; o en les fletxes verdes per a mapes adjacents.


METAR-TAF: